Time;durP1;ratioP1;P1;durP2;ratioP2;P2;SDS_P1;SDS_P2;PMS_P1;PMS_P2;Temp;Humidity;BMP_temperature;BMP_pressure;BME280_temperature;BME280_humidity;BME280_pressure;Samples;Min_cycle;Max_cycle;Signal;HPM_P1;HPM_P2
2022/04/02 00:01:15;;;;;;;8.52;3.33;;;4.20;99.90;;;;;;4995100;28;20058;-72
2022/04/02 00:03:41;;;;;;;8.93;3.28;;;4.10;99.90;;;;;;4994827;28;20057;-73
2022/04/02 00:06:06;;;;;;;8.77;3.50;;;4.10;99.90;;;;;;4995123;28;20403;-72
2022/04/02 00:08:32;;;;;;;7.97;3.50;;;4.10;99.90;;;;;;4995029;28;20037;-72
2022/04/02 00:10:58;;;;;;;8.52;3.63;;;4.10;99.90;;;;;;4994685;28;20018;-73
2022/04/02 00:13:23;;;;;;;6.85;2.90;;;4.10;99.90;;;;;;4994366;28;20312;-72
2022/04/02 00:15:49;;;;;;;10.35;3.22;;;4.10;99.90;;;;;;4993893;28;20045;-72
2022/04/02 00:18:15;;;;;;;10.88;3.15;;;4.10;99.90;;;;;;4994142;28;20562;-72
2022/04/02 00:20:41;;;;;;;10.93;3.45;;;4.10;99.90;;;;;;4994039;28;20034;-72
2022/04/02 00:25:50;;;;;;;5.57;3.10;;;4.10;99.90;;;;;;4999522;28;20035;-75
2022/04/02 00:28:16;;;;;;;10.00;3.13;;;4.10;99.90;;;;;;4976898;28;20030;-74
2022/04/02 00:30:43;;;;;;;8.02;3.17;;;4.10;99.90;;;;;;4996497;28;20022;-75
2022/04/02 00:33:08;;;;;;;6.65;3.03;;;4.10;99.90;;;;;;4994924;28;20396;-74
2022/04/02 00:35:34;;;;;;;9.23;3.55;;;4.10;99.90;;;;;;4995036;28;20026;-75
2022/04/02 00:37:59;;;;;;;8.35;2.95;;;4.10;99.90;;;;;;4975936;28;20034;-75
2022/04/02 00:40:25;;;;;;;10.85;3.60;;;4.10;99.90;;;;;;4993980;28;20034;-75
2022/04/02 00:42:50;;;;;;;11.70;3.45;;;4.10;99.90;;;;;;4993920;28;20030;-74
2022/04/02 00:45:16;;;;;;;10.23;3.63;;;4.10;99.90;;;;;;4993481;28;20438;-75
2022/04/02 00:47:41;;;;;;;10.57;3.25;;;4.10;99.90;;;;;;4994379;28;20213;-74
2022/04/02 00:50:07;;;;;;;9.85;3.55;;;4.00;99.90;;;;;;4994925;28;20030;-76
2022/04/02 00:52:33;;;;;;;6.63;3.47;;;4.00;99.90;;;;;;4995024;28;20486;-76
2022/04/02 00:54:58;;;;;;;9.13;3.30;;;4.00;99.90;;;;;;4995316;28;20027;-75
2022/04/02 00:57:25;;;;;;;10.70;3.20;;;4.00;99.90;;;;;;4977265;28;20026;-74
2022/04/02 00:59:51;;;;;;;11.32;3.08;;;4.00;99.90;;;;;;4994315;28;20500;-75
2022/04/02 01:02:18;;;;;;;6.82;3.20;;;4.00;99.90;;;;;;4995099;28;20062;-75
2022/04/02 01:04:45;;;;;;;9.45;3.58;;;3.90;99.90;;;;;;4994538;28;20034;-75
2022/04/02 01:07:10;;;;;;;11.65;3.60;;;3.90;99.90;;;;;;4976069;28;20042;-76
2022/04/02 01:09:36;;;;;;;10.35;3.63;;;3.90;99.90;;;;;;4993286;28;20023;-74
2022/04/02 01:12:02;;;;;;;11.32;3.38;;;3.90;99.90;;;;;;4993846;28;20027;-74
2022/04/02 01:14:27;;;;;;;11.88;3.47;;;3.90;99.90;;;;;;4993945;28;20039;-76
2022/04/02 01:16:53;;;;;;;9.35;3.88;;;3.90;99.90;;;;;;4998809;28;20033;-79
2022/04/02 01:19:18;;;;;;;9.48;3.88;;;3.90;99.90;;;;;;4997290;28;20471;-77
2022/04/02 01:21:45;;;;;;;5.95;3.28;;;3.90;99.90;;;;;;4979992;28;20027;-77
2022/04/02 01:24:11;;;;;;;12.50;3.75;;;3.90;99.90;;;;;;5006767;28;20463;-77
2022/04/02 01:26:37;;;;;;;10.10;4.05;;;4.00;99.90;;;;;;5018388;28;20033;-78
2022/04/02 01:29:03;;;;;;;9.48;3.85;;;4.00;99.90;;;;;;5019738;28;20546;-78
2022/04/02 01:31:29;;;;;;;12.13;3.88;;;4.00;99.90;;;;;;5021953;28;20053;-77
2022/04/02 01:33:55;;;;;;;11.52;3.28;;;4.00;99.90;;;;;;5020549;28;20025;-78
2022/04/02 01:36:22;;;;;;;8.18;3.30;;;4.00;99.90;;;;;;5022456;28;20037;-78
2022/04/02 01:38:48;;;;;;;5.90;3.13;;;4.00;99.90;;;;;;5013443;28;20026;-78
2022/04/02 01:41:14;;;;;;;11.20;3.67;;;4.00;99.90;;;;;;5015876;28;20026;-78
2022/04/02 01:43:40;;;;;;;10.38;3.25;;;4.00;99.90;;;;;;5012807;28;20054;-77
2022/04/02 01:46:06;;;;;;;9.82;3.55;;;4.00;99.90;;;;;;5013151;28;20483;-78
2022/04/02 01:48:32;;;;;;;10.05;3.47;;;4.00;99.90;;;;;;4999457;28;20032;-77
2022/04/02 01:50:58;;;;;;;9.40;3.60;;;4.00;99.90;;;;;;5015054;28;20014;-78
2022/04/02 01:53:26;;;;;;;10.63;3.83;;;4.00;99.90;;;;;;5015634;28;20505;-78
2022/04/02 01:55:52;;;;;;;10.05;3.55;;;4.00;99.90;;;;;;5014577;28;20434;-78
2022/04/02 01:58:18;;;;;;;8.82;3.60;;;4.00;99.90;;;;;;4998378;28;20022;-77
2022/04/02 02:00:46;;;;;;;12.10;3.40;;;4.00;99.90;;;;;;5015536;28;20026;-77
2022/04/02 02:03:12;;;;;;;10.02;3.55;;;4.10;99.90;;;;;;5017049;28;20033;-78
2022/04/02 02:05:38;;;;;;;8.70;3.42;;;4.00;99.90;;;;;;5016252;28;20025;-77
2022/04/02 02:08:04;;;;;;;8.45;3.65;;;4.00;99.90;;;;;;5016991;28;20441;-78
2022/04/02 02:10:30;;;;;;;11.38;3.53;;;4.00;99.90;;;;;;4997493;28;20033;-79
2022/04/02 02:12:56;;;;;;;7.13;3.40;;;4.00;99.90;;;;;;5015185;28;20467;-78
2022/04/02 02:15:22;;;;;;;11.80;3.97;;;3.90;99.90;;;;;;5001015;28;20410;-75
2022/04/02 02:17:49;;;;;;;6.70;3.53;;;4.00;99.90;;;;;;5013832;28;20022;-75
2022/04/02 02:20:15;;;;;;;7.93;3.70;;;;;;;;;;4996403;28;20438;-74
2022/04/02 02:22:42;;;;;;;11.50;4.15;;;;;;;;;;5012831;28;20038;-75
2022/04/02 02:25:11;;;;;;;9.60;3.92;;;;;;;;;;5013163;28;20033;-75
2022/04/02 02:27:37;;;;;;;12.70;4.25;;;;;;;;;;5017900;28;20029;-74
2022/04/02 02:30:04;;;;;;;10.50;3.60;;;;;;;;;;5012830;28;20105;-74
2022/04/02 02:32:36;;;;;;;7.82;3.90;;;;;;;;;;5013598;28;20033;-75
2022/04/02 02:38:11;;;;;;;9.95;4.75;;;;;;;;;;5014877;28;20052;-74
2022/04/02 02:40:38;;;;;;;8.35;3.78;;;3.90;99.90;;;;;;5013717;28;20034;-75
2022/04/02 02:43:05;;;;;;;16.20;4.80;;;3.70;99.90;;;;;;5012603;28;20034;-75
2022/04/02 02:45:31;;;;;;;11.93;4.05;;;3.70;99.90;;;;;;5012510;28;20502;-76
2022/04/02 02:47:58;;;;;;;10.93;4.10;;;3.70;99.90;;;;;;5012789;28;20022;-77
2022/04/02 02:50:24;;;;;;;7.38;3.63;;;3.70;99.90;;;;;;5018284;28;20033;-76
2022/04/02 02:52:49;;;;;;;10.93;4.47;;;3.70;99.90;;;;;;5018370;28;20053;-76
2022/04/02 02:55:15;;;;;;;7.13;3.90;;;3.60;99.90;;;;;;5024522;28;20137;-76
2022/04/02 02:57:43;;;;;;;10.68;3.95;;;3.60;99.90;;;;;;5016694;28;20038;-75
2022/04/02 03:00:10;;;;;;;9.68;3.90;;;3.60;99.90;;;;;;5019674;28;20049;-76
2022/04/02 03:02:39;;;;;;;10.95;4.22;;;3.50;99.90;;;;;;5017572;28;20053;-75
2022/04/02 03:05:10;;;;;;;8.07;4.00;;;3.50;99.90;;;;;;5016619;28;20037;-76
2022/04/02 03:07:37;;;;;;;10.90;4.28;;;3.50;99.90;;;;;;5017223;28;20497;-77
2022/04/02 03:10:03;;;;;;;9.05;4.20;;;3.50;99.90;;;;;;5016726;28;20530;-75
2022/04/02 03:12:28;;;;;;;11.38;4.40;;;3.50;99.90;;;;;;5016736;28;20054;-75
2022/04/02 03:14:54;;;;;;;9.18;4.53;;;3.50;99.90;;;;;;5017856;28;20431;-75
2022/04/02 03:17:19;;;;;;;17.08;4.63;;;3.50;99.90;;;;;;5016152;28;20030;-75
2022/04/02 03:19:45;;;;;;;7.63;3.90;;;3.50;99.90;;;;;;5015955;28;20048;-77
2022/04/02 03:22:10;;;;;;;12.70;4.53;;;3.50;99.90;;;;;;5015919;28;20033;-76
2022/04/02 03:24:36;;;;;;;6.82;3.88;;;3.40;99.90;;;;;;5015955;28;20064;-75
2022/04/02 03:27:01;;;;;;;10.95;4.43;;;3.40;99.90;;;;;;5016451;28;20029;-75
2022/04/02 03:29:28;;;;;;;12.40;4.22;;;3.40;99.90;;;;;;5017129;28;20029;-77
2022/04/02 03:31:54;;;;;;;9.27;4.10;;;3.30;99.90;;;;;;5016427;28;20029;-76
2022/04/02 03:34:19;;;;;;;10.57;4.32;;;3.30;99.90;;;;;;5016665;28;20026;-75
2022/04/02 03:36:45;;;;;;;9.52;4.50;;;3.30;99.90;;;;;;5016481;28;20052;-75
2022/04/02 03:39:11;;;;;;;10.27;4.72;;;3.20;99.90;;;;;;5017652;28;20073;-76
2022/04/02 03:41:36;;;;;;;12.27;4.25;;;3.30;99.90;;;;;;5017455;28;20475;-75
2022/04/02 03:44:02;;;;;;;11.57;4.13;;;3.20;99.90;;;;;;5017524;28;20087;-75
2022/04/02 03:49:13;;;;;;;13.82;4.75;;;3.20;99.90;;;;;;5017848;28;20037;-75
2022/04/02 03:51:39;;;;;;;7.60;3.90;;;3.20;99.90;;;;;;4998754;28;20088;-74
2022/04/02 03:54:04;;;;;;;8.02;4.15;;;3.10;99.90;;;;;;5016759;28;20528;-75
2022/04/02 03:56:30;;;;;;;8.85;4.00;;;3.10;99.90;;;;;;5017350;28;20037;-76
2022/04/02 03:58:55;;;;;;;11.50;4.70;;;3.00;99.90;;;;;;5000947;28;20391;-77
2022/04/02 04:01:22;;;;;;;12.07;4.03;;;3.00;99.90;;;;;;5019713;28;20471;-75
2022/04/02 04:03:47;;;;;;;10.45;4.32;;;3.00;99.90;;;;;;5019910;28;20041;-75
2022/04/02 04:06:13;;;;;;;11.75;4.80;;;3.00;99.90;;;;;;5018937;28;20029;-74
2022/04/02 04:08:40;;;;;;;10.07;4.43;;;3.00;99.90;;;;;;5015422;28;20073;-76
2022/04/02 04:11:06;;;;;;;11.98;4.00;;;3.00;99.90;;;;;;4997645;28;20029;-75
2022/04/02 04:13:32;;;;;;;13.18;5.07;;;2.90;99.90;;;;;;5015788;28;20494;-75
2022/04/02 04:15:58;;;;;;;12.90;4.43;;;3.00;99.90;;;;;;4997243;28;20061;-75
2022/04/02 04:18:23;;;;;;;9.65;4.50;;;3.00;99.90;;;;;;5014873;28;20093;-75
2022/04/02 04:20:49;;;;;;;17.63;4.72;;;3.00;99.90;;;;;;5014744;28;20026;-74
2022/04/02 04:23:15;;;;;;;10.18;4.22;;;;;;;;;;5014406;28;20030;-74
2022/04/02 04:25:41;;;;;;;10.40;4.47;;;;;;;;;;4996984;28;20068;-74
2022/04/02 04:28:07;;;;;;;12.35;4.22;;;;;;;;;;5014996;28;20084;-75
2022/04/02 04:30:34;;;;;;;8.27;4.57;;;;;;;;;;5014391;28;20109;-74
2022/04/02 04:33:00;;;;;;;8.50;4.32;;;;;;;;;;5014729;28;20148;-75
2022/04/02 04:35:26;;;;;;;12.10;4.40;;;;;;;;;;5014686;28;20029;-76
2022/04/02 04:37:52;;;;;;;13.00;4.82;;;;;;;;;;5015452;28;20038;-74
2022/04/02 04:40:18;;;;;;;10.18;4.07;;;;;;;;;;5014552;28;20053;-75
2022/04/02 04:42:44;;;;;;;11.07;4.55;;;;;;;;;;5014329;28;20026;-75
2022/04/02 04:45:10;;;;;;;13.00;4.50;;;;;;;;;;5014145;28;20065;-76
2022/04/02 04:47:36;;;;;;;10.90;4.03;;;;;;;;;;5014128;28;20033;-75
2022/04/02 04:50:03;;;;;;;10.93;4.75;;;;;;;;;;5014691;28;20018;-76
2022/04/02 04:52:29;;;;;;;8.07;3.90;;;;;;;;;;5014686;28;20026;-77
2022/04/02 04:54:55;;;;;;;11.40;4.60;;;;;;;;;;5015231;28;20045;-75
2022/04/02 04:57:21;;;;;;;12.70;4.57;;;;;;;;;;5015148;28;20036;-75
2022/04/02 04:59:47;;;;;;;10.93;4.50;;;;;;;;;;5017107;28;20092;-75
2022/04/02 05:02:13;;;;;;;10.82;4.45;;;;;;;;;;5021694;28;20030;-75
2022/04/02 05:04:39;;;;;;;10.30;5.05;;;;;;;;;;5014466;28;20026;-76
2022/04/02 05:07:05;;;;;;;15.07;5.55;;;;;;;;;;4995965;28;20064;-75
2022/04/02 05:09:31;;;;;;;10.65;4.97;;;;;;;;;;5013965;28;20026;-75
2022/04/02 05:11:57;;;;;;;10.65;4.18;;;;;;;;;;4996267;28;20049;-74
2022/04/02 05:14:24;;;;;;;12.43;4.40;;;;;;;;;;5013973;28;20022;-74
2022/04/02 05:16:52;;;;;;;14.38;5.72;;;;;;;;;;5013088;28;20646;-76
2022/04/02 05:19:18;;;;;;;14.48;5.50;;;;;;;;;;4996098;28;20467;-74
2022/04/02 05:21:44;;;;;;;13.82;5.22;;;;;;;;;;4995871;28;20538;-75
2022/04/02 05:24:10;;;;;;;9.15;4.68;;;;;;;;;;5013596;28;20030;-75
2022/04/02 05:26:36;;;;;;;9.95;4.70;;;;;;;;;;5013992;28;20033;-74
2022/04/02 05:29:02;;;;;;;11.25;4.70;;;;;;;;;;5014259;28;20028;-75
2022/04/02 05:31:28;;;;;;;11.95;4.63;;;;;;;;;;4997702;28;20064;-75
2022/04/02 05:33:54;;;;;;;10.45;4.43;;;;;;;;;;5016099;28;20033;-76
2022/04/02 05:36:20;;;;;;;11.32;4.95;;;;;;;;;;4999292;28;20030;-78
2022/04/02 05:38:46;;;;;;;12.60;4.50;;;;;;;;;;4995856;28;20068;-75
2022/04/02 05:41:12;;;;;;;10.30;4.78;;;;;;;;;;5015477;28;20030;-75
2022/04/02 05:43:38;;;;;;;12.82;4.82;;;;;;;;;;5014857;28;20041;-75
2022/04/02 05:46:04;;;;;;;9.73;4.45;;;;;;;;;;4997858;28;20342;-76
2022/04/02 05:48:30;;;;;;;13.88;4.80;;;;;;;;;;5017797;28;20467;-75
2022/04/02 05:50:56;;;;;;;12.63;4.55;;;;;;;;;;5015072;28;20029;-75
2022/04/02 05:53:23;;;;;;;17.35;4.88;;;;;;;;;;5000190;28;20022;-75
2022/04/02 05:55:49;;;;;;;13.07;5.32;;;;;;;;;;5016431;28;20018;-76
2022/04/02 05:58:16;;;;;;;13.68;4.60;;;;;;;;;;5017951;28;20034;-76
2022/04/02 06:00:42;;;;;;;8.55;4.45;;;;;;;;;;5022588;28;20030;-77
2022/04/02 06:08:05;;;;;;;14.57;5.28;;;;;;;;;;5391175;22;20041;-76
2022/04/02 06:10:31;;;;;;;12.63;4.50;;;;;;;;;;5077321;22;20050;-73
2022/04/02 06:12:57;;;;;;;9.40;4.68;;;;;;;;;;5001968;28;20021;-75
2022/04/02 06:15:24;;;;;;;11.18;4.88;;;;;;;;;;5018629;28;20045;-74
2022/04/02 06:23:03;;;;;;;10.27;4.38;;;;;;;;;;5121093;22;20072;-76
2022/04/02 06:40:58;;;;;;;11.98;5.03;;;;;;;;;;5016144;28;20034;-75
2022/04/02 06:43:24;;;;;;;10.60;4.57;;;;;;;;;;5000618;28;20043;-76
2022/04/02 06:45:53;;;;;;;13.23;4.93;;;;;;;;;;5017166;28;20014;-75
2022/04/02 06:48:19;;;;;;;14.30;5.30;;;;;;;;;;5000339;28;20045;-75
2022/04/02 06:50:45;;;;;;;9.30;4.32;;;;;;;;;;5000508;28;20010;-75
2022/04/02 06:53:11;;;;;;;10.13;4.43;;;;;;;;;;5000276;28;20038;-75
2022/04/02 06:55:38;;;;;;;11.55;4.65;;;;;;;;;;5017196;28;20049;-74
2022/04/02 06:58:05;;;;;;;11.45;4.43;;;;;;;;;;5012610;28;20003;-76
2022/04/02 07:00:31;;;;;;;14.45;5.03;;;;;;;;;;4996971;28;20019;-76
2022/04/02 07:02:57;;;;;;;9.00;3.88;;;;;;;;;;4995026;28;20033;-75
2022/04/02 07:05:23;;;;;;;11.68;4.63;;;;;;;;;;4994218;28;20047;-76
2022/04/02 07:07:50;;;;;;;11.80;3.95;;;;;;;;;;4997522;28;20027;-75
2022/04/02 07:10:17;;;;;;;11.13;4.50;;;;;;;;;;4994238;28;20027;-75
2022/04/02 07:12:44;;;;;;;10.02;3.80;;;;;;;;;;4990799;28;20043;-74
2022/04/02 07:15:10;;;;;;;7.57;3.42;;;;;;;;;;4992007;28;20023;-74
2022/04/02 07:17:36;;;;;;;6.78;3.60;;;;;;;;;;4976802;28;20046;-74
2022/04/02 07:20:03;;;;;;;5.57;2.88;;;;;;;;;;5011518;28;20064;-75
2022/04/02 07:22:34;;;;;;;7.60;3.38;;;;;;;;;;4997280;28;20085;-76
2022/04/02 07:25:04;;;;;;;10.25;3.20;;;;;;;;;;5015278;28;19999;-73
2022/04/02 07:27:31;;;;;;;7.65;3.00;;;;;;;;;;5000956;28;20030;-73
2022/04/02 07:29:58;;;;;;;7.57;3.40;;;;;;;;;;5001047;28;20014;-73
2022/04/02 07:32:24;;;;;;;7.90;2.63;;;;;;;;;;5017644;28;20042;-73
2022/04/02 07:34:51;;;;;;;4.80;2.60;;;;;;;;;;5001340;28;20046;-73
2022/04/02 07:37:57;;;;;;;5.18;2.42;;;;;;;;;;5007062;28;20053;-75
2022/04/02 07:40:29;;;;;;;5.03;2.15;;;;;;;;;;5008344;28;20035;-74
2022/04/02 07:43:04;;;;;;;4.82;2.15;;;;;;;;;;4988750;28;20015;-75
2022/04/02 07:45:40;;;;;;;4.75;2.00;;;;;;;;;;5004165;28;20086;-74
2022/04/02 07:48:10;;;;;;;3.65;1.90;;;;;;;;;;5020609;28;20053;-74
2022/04/02 07:50:41;;;;;;;4.65;2.33;;;;;;;;;;4985210;28;20088;-74
2022/04/02 07:53:12;;;;;;;4.50;2.17;;;;;;;;;;5004415;28;20050;-73
2022/04/02 07:55:42;;;;;;;3.58;1.90;;;;;;;;;;5021145;28;20038;-74
2022/04/02 07:58:10;;;;;;;2.53;1.63;;;;;;;;;;4996713;28;20015;-73
2022/04/02 08:00:37;;;;;;;8.93;2.15;;;;;;;;;;5020789;28;20077;-74
2022/04/02 08:03:05;;;;;;;3.42;1.98;;;;;;;;;;5020901;28;20037;-73
2022/04/02 08:05:31;;;;;;;4.13;1.48;;;;;;;;;;5004251;28;20021;-73
2022/04/02 08:07:57;;;;;;;5.28;2.05;;;;;;;;;;5020828;28;20022;-74
2022/04/02 08:10:28;;;;;;;7.15;2.38;;;;;;;;;;5004192;28;20035;-73
2022/04/02 08:12:57;;;;;;;6.78;2.13;;;;;;;;;;5003863;28;20074;-72
2022/04/02 08:15:23;;;;;;;7.78;2.30;;;;;;;;;;5003275;28;20026;-73
2022/04/02 08:17:54;;;;;;;8.10;2.75;;;;;;;;;;5003061;28;20029;-72
2022/04/02 08:20:21;;;;;;;3.83;1.60;;;;;;;;;;5003019;28;20166;-73
2022/04/02 08:22:48;;;;;;;7.38;2.13;;;;;;;;;;5019815;28;20035;-74
2022/04/02 08:25:14;;;;;;;4.07;1.90;;;;;;;;;;5002908;28;20037;-73
2022/04/02 08:27:46;;;;;;;3.45;2.28;;;;;;;;;;5002810;28;20057;-73
2022/04/02 08:30:15;;;;;;;4.65;2.13;;;;;;;;;;5019670;28;20053;-72
2022/04/02 08:33:00;;;;;;;5.55;2.10;;;;;;;;;;5002744;28;20054;-72
2022/04/02 08:35:26;;;;;;;;;;;;;;;;;;5003096;28;20029;-74
2022/04/02 08:37:52;;;;;;;4.03;1.73;;;;;;;;;;5002825;28;19894;-74
2022/04/02 08:40:33;;;;;;;5.60;2.05;;;;;;;;;;5019495;28;20049;-74
2022/04/02 08:43:02;;;;;;;5.28;2.47;;;;;;;;;;5002581;28;20021;-74
2022/04/02 08:45:34;;;;;;;4.47;2.08;;;;;;;;;;5019354;28;20070;-75
2022/04/02 08:48:19;;;;;;;5.20;1.60;;;;;;;;;;5018998;28;20022;-73
2022/04/02 08:50:50;;;;;;;4.72;1.83;;;;;;;;;;5019371;28;20038;-75
2022/04/02 08:53:17;;;;;;;4.00;1.50;;;;;;;;;;5002593;28;20102;-72
2022/04/02 08:55:48;;;;;;;6.95;1.63;;;;;;;;;;5019387;28;20046;-74
2022/04/02 08:58:40;;;;;;;4.68;1.42;;;;;;;;;;5019293;28;20078;-73
2022/04/02 09:01:07;;;;;;;3.95;1.40;;;;;;;;;;5002305;28;20033;-73
2022/04/02 09:03:39;;;;;;;4.25;1.85;;;;;;;;;;5002191;28;20078;-73
2022/04/02 09:06:25;;;;;;;3.13;1.88;;;;;;;;;;5002299;28;20324;-73
2022/04/02 09:08:56;;;;;;;2.03;1.40;;;;;;;;;;5019102;28;20025;-74
2022/04/02 09:11:23;;;;;;;4.40;1.70;;;;;;;;;;5019062;28;20018;-73
2022/04/02 09:13:59;;;;;;;3.97;1.50;;;;;;;;;;5018958;28;20070;-73
2022/04/02 09:16:32;;;;;;;2.75;1.35;;;;;;;;;;5001958;28;20022;-72
2022/04/02 09:18:58;;;;;;;2.58;1.20;;;;;;;;;;5018753;28;20102;-72
2022/04/02 09:21:34;;;;;;;3.08;1.30;;;;;;;;;;5018780;28;20033;-72
2022/04/02 09:24:05;;;;;;;3.10;1.30;;;;;;;;;;5018795;28;20034;-72
2022/04/02 09:26:31;;;;;;;3.53;1.40;;;;;;;;;;5001772;28;20026;-72
2022/04/02 09:29:11;;;;;;;7.13;2.00;;;;;;;;;;5018452;28;20014;-74
2022/04/02 09:31:37;;;;;;;6.72;1.50;;;;;;;;;;5001690;28;20014;-73
2022/04/02 09:34:22;;;;;;;3.92;1.30;;;;;;;;;;5001573;28;20064;-73
2022/04/02 09:37:16;;;;;;;3.38;1.70;;;;;;;;;;5001631;28;20042;-73
2022/04/02 09:40:04;;;;;;;4.47;1.42;;;;;;;;;;5001473;28;20038;-73
2022/04/02 09:42:35;;;;;;;4.20;1.40;;;;;;;;;;5018321;28;20021;-73
2022/04/02 09:45:09;;;;;;;7.90;1.63;;;;;;;;;;5001401;28;20082;-72
2022/04/02 09:47:54;;;;;;;2.80;1.60;;;;;;;;;;5001587;28;20045;-72
2022/04/02 09:50:24;;;;;;;3.13;1.55;;;;;;;;;;5018197;28;20046;-73
2022/04/02 09:52:56;;;;;;;4.72;2.10;;;;;;;;;;5001503;28;20018;-78
2022/04/02 09:55:23;;;;;;;4.03;1.60;;;;;;;;;;5018132;28;20026;-73
2022/04/02 09:58:08;;;;;;;2.92;1.55;;;;;;;;;;5017955;28;20033;-74
2022/04/02 10:00:41;;;;;;;7.03;1.77;;;;;;;;;;5016691;28;20033;-74
2022/04/02 10:03:28;;;;;;;2.80;1.38;;;;;;;;;;5014273;28;20027;-75
2022/04/02 10:06:03;;;;;;;5.35;1.60;;;;;;;;;;4983459;28;20039;-75
2022/04/02 10:08:41;;;;;;;10.57;3.17;;;;;;;;;;4997082;28;20098;-76
2022/04/02 10:11:11;;;;;;;4.97;2.00;;;;;;;;;;4997637;28;20022;-75
2022/04/02 10:13:41;;;;;;;3.88;1.60;;;;;;;;;;5015326;28;20018;-74
2022/04/02 10:16:09;;;;;;;8.93;2.10;;;;;;;;;;5015640;28;20070;-75
2022/04/02 10:18:36;;;;;;;3.38;1.67;;;;;;;;;;4997710;28;20033;-75
2022/04/02 10:21:06;;;;;;;4.70;2.00;;;;;;;;;;5014737;28;20027;-73
2022/04/02 10:23:35;;;;;;;13.48;4.63;;;;;;;;;;4998321;28;20027;-74
2022/04/02 10:26:17;;;;;;;7.22;2.10;;;;;;;;;;4998162;28;20014;-75
2022/04/02 10:28:49;;;;;;;3.65;2.10;;;;;;;;;;4998012;28;20030;-75
2022/04/02 10:31:36;;;;;;;21.52;8.75;;;;;;;;;;4997609;28;20029;-76
2022/04/02 10:34:25;;;;;;;7.07;2.50;;;;;;;;;;4997614;28;20094;-75
2022/04/02 10:36:54;;;;;;;6.35;2.90;;;;;;;;;;5004474;28;20046;-75
2022/04/02 10:39:28;;;;;;;5.18;1.92;;;;;;;;;;5014490;28;20030;-75
2022/04/02 10:41:55;;;;;;;8.52;2.00;;;;;;;;;;5014414;28;20058;-75
2022/04/02 10:44:40;;;;;;;9.48;3.03;;;;;;;;;;5014926;28;20081;-75
2022/04/02 10:47:08;;;;;;;4.45;2.03;;;;;;;;;;5015669;28;20085;-77
2022/04/02 10:49:40;;;;;;;15.50;6.75;;;;;;;;;;4999269;28;20495;-73
2022/04/02 10:52:07;;;;;;;4.60;2.17;;;;;;;;;;4995829;28;20090;-76
2022/04/02 10:54:35;;;;;;;4.82;1.67;;;;;;;;;;4998884;28;20026;-74
2022/04/02 10:57:04;;;;;;;7.55;2.85;;;;;;;;;;5015368;28;20034;-74
2022/04/02 10:59:31;;;;;;;3.72;2.00;;;;;;;;;;5014570;28;20085;-74
2022/04/02 11:01:59;;;;;;;5.45;2.15;;;;;;;;;;5014420;28;20019;-74
2022/04/02 11:04:26;;;;;;;5.60;2.22;;;;;;;;;;4997010;28;20054;-73
2022/04/02 11:06:54;;;;;;;5.07;2.40;;;;;;;;;;5013977;28;20026;-74
2022/04/02 11:09:24;;;;;;;4.35;2.00;;;;;;;;;;5014308;28;20050;-75
2022/04/02 11:11:51;;;;;;;4.55;1.95;;;;;;;;;;5017909;28;20456;-75
2022/04/02 11:14:22;;;;;;;4.65;2.38;;;;;;;;;;5019140;28;20018;-73
2022/04/02 11:16:51;;;;;;;13.60;5.72;;;;;;;;;;5019433;28;20030;-75
2022/04/02 11:22:15;;;;;;;6.65;1.85;;;;;;;;;;5016897;28;20062;-76
2022/04/02 11:24:53;;;;;;;3.90;1.50;;;;;;;;;;5000665;28;20026;-74
2022/04/02 11:27:24;;;;;;;20.95;3.20;;;;;;;;;;5017836;28;20065;-73
2022/04/02 11:29:51;;;;;;;7.18;2.33;;;;;;;;;;5000405;28;20022;-74
2022/04/02 11:32:23;;;;;;;3.47;1.77;;;;;;;;;;5001848;28;20022;-71
2022/04/02 11:34:49;;;;;;;2.88;1.60;;;;;;;;;;5021481;28;20069;-72
2022/04/02 11:37:15;;;;;;;9.40;3.65;;;;;;;;;;5017950;28;20041;-72
2022/04/02 11:39:47;;;;;;;5.10;2.13;;;;;;;;;;5004335;28;20030;-71
2022/04/02 11:42:24;;;;;;;7.13;1.80;;;;;;;;;;5021374;28;20019;-71
2022/04/02 11:44:52;;;;;;;2.92;1.60;;;;;;;;;;5021449;28;20020;-73
2022/04/02 11:47:26;;;;;;;4.25;1.73;;;;;;;;;;5004198;28;20037;-72
2022/04/02 11:49:54;;;;;;;4.70;1.98;;;;;;;;;;5021209;28;20021;-72
2022/04/02 11:52:20;;;;;;;2.42;1.67;;;;;;;;;;5004241;28;20045;-71
2022/04/02 11:54:51;;;;;;;6.05;1.80;;;;;;;;;;5021190;28;20018;-72
2022/04/02 11:57:18;;;;;;;2.63;1.45;;;;;;;;;;5020952;28;20006;-72
2022/04/02 11:59:51;;;;;;;3.65;1.83;;;;;;;;;;5004335;28;20029;-73
2022/04/02 12:02:39;;;;;;;4.65;1.90;;;;;;;;;;5021065;28;20030;-72
2022/04/02 12:05:06;;;;;;;4.85;2.05;;;;;;;;;;5004233;28;20038;-72
2022/04/02 12:07:41;;;;;;;6.78;1.77;;;;;;;;;;5020685;28;20042;-72
2022/04/02 12:10:12;;;;;;;5.07;2.22;;;;;;;;;;5004117;28;20035;-71
2022/04/02 12:12:45;;;;;;;4.18;1.95;;;;;;;;;;5020924;28;20014;-71
2022/04/02 12:15:12;;;;;;;5.07;2.38;;;;;;;;;;5003992;28;20091;-73
2022/04/02 12:17:39;;;;;;;3.85;1.85;;;;;;;;;;5050597;23;20022;-72
2022/04/02 12:20:09;;;;;;;5.25;2.28;;;;;;;;;;5041428;28;20013;-72
2022/04/02 12:23:04;;;;;;;4.82;1.88;;;;;;;;;;5024281;28;20010;-71
2022/04/02 12:25:33;;;;;;;2.22;1.48;;;;;;;;;;5008409;28;20014;-73
2022/04/02 12:28:00;;;;;;;4.03;1.50;;;;;;;;;;5023759;28;20028;-73
2022/04/02 12:30:33;;;;;;;10.80;4.68;;;;;;;;;;5042989;28;20012;-72
2022/04/02 12:33:14;;;;;;;1.70;1.38;;;;;;;;;;5026997;28;20021;-73
2022/04/02 12:36:01;;;;;;;9.65;2.30;;;;;;;;;;5043169;28;20133;-72
2022/04/02 12:38:30;;;;;;;5.40;2.30;;;;;;;;;;5042750;28;20018;-73
2022/04/02 12:40:57;;;;;;;6.82;1.70;;;;;;;;;;5058425;28;20051;-74
2022/04/02 12:43:28;;;;;;;2.63;1.60;;;;;;;;;;5026338;28;20022;-74
2022/04/02 12:45:55;;;;;;;3.22;1.70;;;;;;;;;;5042598;28;20036;-74
2022/04/02 12:48:24;;;;;;;5.63;3.00;;;;;;;;;;5042514;28;20064;-74
2022/04/02 12:51:01;;;;;;;3.85;1.85;;;;;;;;;;5041886;28;20025;-74
2022/04/02 12:53:40;;;;;;;2.45;1.55;;;;;;;;;;5057768;28;20037;-75
2022/04/02 12:56:18;;;;;;;4.68;1.60;;;;;;;;;;5059746;28;20069;-75
2022/04/02 12:58:47;;;;;;;11.27;1.75;;;;;;;;;;5059823;28;20030;-75
2022/04/02 13:01:33;;;;;;;2.78;1.13;;;;;;;;;;5042618;28;20017;-74
2022/04/02 13:04:04;;;;;;;2.22;1.10;;;;;;;;;;5059166;28;20017;-74
2022/04/02 13:06:35;;;;;;;2.17;1.33;;;;;;;;;;5059435;28;20077;-73
2022/04/02 13:09:04;;;;;;;3.38;1.52;;;;;;;;;;5059234;28;20022;-73
2022/04/02 13:11:37;;;;;;;4.28;1.50;;;;;;;;;;5059052;28;20077;-75
2022/04/02 13:14:04;;;;;;;1.98;1.45;;;;;;;;;;5059267;28;20022;-74
2022/04/02 13:16:38;;;;;;;1.90;1.45;;;;;;;;;;5059240;28;20029;-74
2022/04/02 13:21:59;;;;;;;3.47;1.58;;;19.20;31.90;;;;;;5059164;28;20029;-74
2022/04/02 13:24:35;;;;;;;3.83;1.88;;;16.70;33.10;;;;;;5010335;28;20013;-75
2022/04/02 13:27:44;;;;;;;3.70;1.58;;;15.70;35.40;;;;;;5042458;28;20079;-72
2022/04/02 13:30:22;;;;;;;4.10;2.00;;;15.90;35.20;;;;;;5041902;28;20026;-71
2022/04/02 13:33:35;;;;;;;2.95;1.23;;;16.90;34.10;;;;;;5025243;28;20053;-73
2022/04/02 13:36:24;;;;;;;2.22;1.40;;;18.30;33.00;;;;;;4968320;28;20021;-70
2022/04/02 13:38:56;;;;;;;5.50;2.03;;;18.80;30.90;;;;;;5011182;28;20044;-72
2022/04/02 13:41:27;;;;;;;3.50;1.70;;;17.90;31.60;;;;;;5041802;28;20039;-71
2022/04/02 13:44:03;;;;;;;3.22;1.60;;;18.30;32.90;;;;;;5026280;28;20036;-71
2022/04/02 13:46:44;;;;;;;5.72;1.90;;;19.30;32.30;;;;;;5042049;28;20022;-71
2022/04/02 13:49:14;;;;;;;2.95;1.40;;;20.10;30.80;;;;;;5026645;28;20037;-72
2022/04/02 13:52:02;;;;;;;7.28;1.50;;;20.20;29.70;;;;;;5025879;28;20037;-72
2022/04/02 13:54:37;;;;;;;3.45;1.30;;;19.10;30.30;;;;;;5058338;28;20005;-72
2022/04/02 13:57:28;;;;;;;3.17;1.73;;;17.80;31.20;;;;;;5058443;28;20018;-72
2022/04/02 14:00:07;;;;;;;5.30;1.63;;;17.30;32.90;;;;;;5042267;28;20005;-72
2022/04/02 14:02:38;;;;;;;8.07;1.90;;;17.50;32.40;;;;;;5041836;28;20041;-72
2022/04/02 14:05:21;;;;;;;2.85;1.60;;;16.10;34.30;;;;;;5017731;28;20033;-77
2022/04/02 14:08:14;;;;;;;4.75;1.60;;;14.00;36.10;;;;;;5038325;28;20025;-77
2022/04/02 14:10:49;;;;;;;4.07;1.65;;;13.70;36.80;;;;;;5022612;28;20040;-79
2022/04/02 14:13:20;;;;;;;4.20;1.73;;;13.80;38.00;;;;;;5012407;28;20033;-81
2022/04/02 14:16:00;;;;;;;3.75;1.48;;;14.60;36.70;;;;;;5003892;28;20026;-80
2022/04/02 14:18:40;;;;;;;2.35;1.40;;;15.80;35.70;;;;;;5000888;28;20022;-78
2022/04/02 14:21:17;;;;;;;4.43;2.00;;;16.50;33.70;;;;;;4999080;28;20029;-79
2022/04/02 14:23:55;;;;;;;7.93;2.60;;;16.70;33.00;;;;;;4998941;28;20022;-78
2022/04/02 14:26:59;;;;;;;3.28;1.33;;;17.50;32.50;;;;;;4999716;28;20034;-78
2022/04/02 14:29:52;;;;;;;5.25;2.28;;;17.90;31.20;;;;;;5007718;28;20014;-77
2022/04/02 14:32:55;;;;;;;1.92;1.27;;;18.80;31.20;;;;;;5008188;28;20038;-77
2022/04/02 14:35:33;;;;;;;5.35;1.70;;;19.60;29.40;;;;;;5004031;28;20038;-80
2022/04/02 14:38:31;;;;;;;4.07;1.73;;;19.40;29.60;;;;;;4998688;28;20026;-79
2022/04/02 14:41:04;;;;;;;2.63;1.20;;;19.50;31.10;;;;;;4980875;28;20026;-79
2022/04/02 14:44:08;;;;;;;1.77;1.20;;;20.60;30.20;;;;;;4988350;28;20081;-76
2022/04/02 14:47:18;;;;;;;4.25;1.70;;;21.40;29.00;;;;;;5008712;28;20022;-79
2022/04/02 14:50:02;;;;;;;2.05;1.35;;;20.90;28.30;;;;;;5009596;28;20023;-77
2022/04/02 14:52:58;;;;;;;3.83;1.60;;;19.60;29.50;;;;;;5005715;28;20022;-77